createdAt,value
2023-03-06T00:03:28.180Z,-0.25
2023-03-06T00:08:31.413Z,-0.36
2023-03-06T00:13:40.615Z,-0.47
2023-03-06T00:18:44.128Z,-0.56
2023-03-06T00:23:46.484Z,-0.63
2023-03-06T00:28:49.277Z,-0.69
2023-03-06T00:33:53.633Z,-0.74
2023-03-06T00:38:56.133Z,-0.75
2023-03-06T00:44:04.052Z,-0.78
2023-03-06T00:49:10.525Z,-0.82
2023-03-06T00:54:33.327Z,-0.82
2023-03-06T00:59:35.924Z,-0.80
2023-03-06T01:04:39.035Z,-0.80
2023-03-06T01:09:41.296Z,-0.83
2023-03-06T01:14:43.371Z,-0.85
2023-03-06T01:19:45.446Z,-0.85
2023-03-06T01:24:49.295Z,-0.82
2023-03-06T01:29:51.733Z,-0.81
2023-03-06T01:34:54.277Z,-0.81
2023-03-06T01:39:56.440Z,-0.81
2023-03-06T01:45:08.504Z,-0.81
2023-03-06T01:50:12.743Z,-0.77
2023-03-06T01:55:21.294Z,-0.74
2023-03-06T02:00:29.651Z,-0.69
2023-03-06T02:05:32.591Z,-0.63
2023-03-06T02:10:35.140Z,-0.58
2023-03-06T02:15:39.847Z,-0.52
2023-03-06T02:21:20.409Z,-0.48
2023-03-06T02:26:23.083Z,-0.47
2023-03-06T02:31:28.984Z,-0.46
2023-03-06T02:36:35.894Z,-0.46
2023-03-06T02:41:38.276Z,-0.48
2023-03-06T02:46:41.077Z,-0.50
2023-03-06T02:51:43.909Z,-0.53
2023-03-06T02:56:48.125Z,-0.56
2023-03-06T03:01:50.597Z,-0.56
2023-03-06T03:06:53.521Z,-0.57
2023-03-06T03:11:55.703Z,-0.64
2023-03-06T03:17:01.195Z,-0.70
2023-03-06T03:22:03.384Z,-0.79
2023-03-06T03:27:06.580Z,-0.88
2023-03-06T03:32:09.908Z,-0.92
2023-03-06T03:37:14.095Z,-0.96
2023-03-06T03:42:17.582Z,-1.00
2023-03-06T03:47:20.101Z,-1.03
2023-03-06T03:52:23.153Z,-1.08
2023-03-06T03:57:26.460Z,-1.09
2023-03-06T04:02:29.338Z,-1.08
2023-03-06T04:07:46.860Z,-1.10
2023-03-06T04:12:49.519Z,-1.10
2023-03-06T04:17:51.951Z,-1.09
2023-03-06T04:22:56.850Z,-1.10
2023-03-06T04:27:59.238Z,-1.10
2023-03-06T04:33:03.506Z,-1.10
2023-03-06T04:38:06.008Z,-1.09
2023-03-06T04:43:09.244Z,-1.09
2023-03-06T04:48:18.868Z,-1.10
2023-03-06T04:53:22.473Z,-1.12
2023-03-06T04:58:25.876Z,-1.09
2023-03-06T05:03:28.388Z,-1.09
2023-03-06T05:08:31.139Z,-1.10
2023-03-06T05:13:33.755Z,-1.08
2023-03-06T05:18:37.940Z,-1.06
2023-03-06T05:23:40.446Z,-1.04
2023-03-06T05:28:42.849Z,-1.00
2023-03-06T05:33:44.865Z,-0.96
2023-03-06T05:38:46.830Z,-0.90
2023-03-06T05:43:49.717Z,-0.87
2023-03-06T05:48:56.118Z,-0.81
2023-03-06T05:53:58.520Z,-0.75
2023-03-06T05:59:00.760Z,-0.67
2023-03-06T06:04:03.277Z,-0.58
2023-03-06T06:09:05.110Z,-0.48
2023-03-06T06:14:07.204Z,-0.32
2023-03-06T06:19:09.682Z,-0.15
2023-03-06T06:24:11.895Z,-0.01
2023-03-06T06:29:13.880Z,0.12
2023-03-06T06:34:17.052Z,0.24
2023-03-06T06:39:21.434Z,0.42
2023-03-06T06:44:23.815Z,0.57
2023-03-06T06:49:25.914Z,0.75
2023-03-06T06:54:28.404Z,0.96
2023-03-06T06:59:30.305Z,1.16
2023-03-06T07:04:32.255Z,1.32
2023-03-06T07:09:34.504Z,1.48
2023-03-06T07:14:37.233Z,1.63
2023-03-06T07:19:39.663Z,1.80
2023-03-06T07:24:41.847Z,1.96
2023-03-06T07:29:44.681Z,2.16
2023-03-06T07:34:47.207Z,2.35
2023-03-06T07:39:49.128Z,2.46
2023-03-06T07:44:52.862Z,2.52
2023-03-06T07:49:57.264Z,2.57
2023-03-06T07:54:59.866Z,2.64
2023-03-06T08:00:03.333Z,2.77
2023-03-06T08:05:16.688Z,2.86
2023-03-06T08:10:18.785Z,3.02
2023-03-06T08:15:20.922Z,3.23
2023-03-06T08:20:23.302Z,3.46
2023-03-06T08:25:25.247Z,3.67
2023-03-06T08:30:27.081Z,3.84
2023-03-06T08:35:28.981Z,4.00
2023-03-06T08:40:31.213Z,4.16
2023-03-06T08:45:33.200Z,4.25
2023-03-06T08:50:35.600Z,4.31
2023-03-06T08:55:38.427Z,4.25
2023-03-06T09:00:40.646Z,4.25
2023-03-06T09:05:42.707Z,4.29
2023-03-06T09:10:48.380Z,4.30
2023-03-06T09:15:54.463Z,4.21
2023-03-06T09:20:56.954Z,4.27
2023-03-06T09:26:00.352Z,4.40
2023-03-06T09:31:07.851Z,4.45
2023-03-06T09:36:18.966Z,4.37
2023-03-06T09:41:34.286Z,4.34
2023-03-06T09:47:14.619Z,4.41
2023-03-06T09:52:36.586Z,4.39
2023-03-06T09:57:42.833Z,4.48
2023-03-06T10:02:50.688Z,4.66
2023-03-06T10:08:05.754Z,4.83
2023-03-06T10:13:28.272Z,4.98
2023-03-06T10:18:30.450Z,5.16
2023-03-06T10:23:46.924Z,5.42
2023-03-06T10:29:14.719Z,5.58
2023-03-06T10:34:22.172Z,5.73
2023-03-06T10:39:24.065Z,5.95
2023-03-06T10:44:25.981Z,6.07
2023-03-06T10:49:36.610Z,6.18
2023-03-06T10:54:44.378Z,6.28
2023-03-06T10:59:58.586Z,6.47
2023-03-06T11:05:02.092Z,6.50
2023-03-06T11:10:19.008Z,6.54
2023-03-06T11:15:22.556Z,6.54
2023-03-06T11:20:24.834Z,6.48
2023-03-06T11:25:34.503Z,6.38
2023-03-06T11:30:43.904Z,6.29
2023-03-06T11:35:52.115Z,6.20
2023-03-06T11:40:59.002Z,6.22
2023-03-06T11:46:25.229Z,6.31
2023-03-06T11:51:33.286Z,6.45
2023-03-06T11:56:38.391Z,6.60
2023-03-06T12:02:00.624Z,6.76
2023-03-06T12:07:21.548Z,6.84
2023-03-06T12:12:46.423Z,6.80
2023-03-06T12:18:16.370Z,6.64
2023-03-06T12:23:39.129Z,6.53
2023-03-06T12:29:07.411Z,6.42
2023-03-06T12:34:34.109Z,6.30
2023-03-06T12:40:13.744Z,6.18
2023-03-06T12:45:39.642Z,5.95
2023-03-06T12:50:45.623Z,5.77
2023-03-06T12:55:50.303Z,5.55
2023-03-06T13:01:16.775Z,5.40
2023-03-06T13:06:50.887Z,5.43
2023-03-06T13:12:05.985Z,5.43
2023-03-06T13:17:25.465Z,5.59
2023-03-06T13:22:29.712Z,5.89
2023-03-06T13:27:54.805Z,6.00
2023-03-06T13:32:57.424Z,6.01
2023-03-06T13:38:00.436Z,6.00
2023-03-06T13:43:08.088Z,5.99
2023-03-06T13:48:47.713Z,5.92
2023-03-06T13:54:26.281Z,5.97
2023-03-06T13:59:37.199Z,5.99
2023-03-06T14:04:47.428Z,5.82
2023-03-06T14:10:11.045Z,5.51
2023-03-06T14:15:31.727Z,5.33
2023-03-06T14:20:40.539Z,5.10
2023-03-06T14:25:45.312Z,4.86
2023-03-06T14:30:53.688Z,4.66
2023-03-06T14:35:59.679Z,4.49
2023-03-06T14:41:03.342Z,4.27
2023-03-06T14:46:06.960Z,4.13
2023-03-06T14:51:17.025Z,4.08
2023-03-06T14:56:25.831Z,4.04
2023-03-06T15:01:38.511Z,4.00
2023-03-06T15:06:43.725Z,3.98
2023-03-06T15:11:57.905Z,3.97
2023-03-06T15:17:18.429Z,3.92
2023-03-06T15:22:31.624Z,3.86
2023-03-06T15:27:33.719Z,3.79
2023-03-06T15:32:42.877Z,3.68
2023-03-06T15:37:44.974Z,3.55
2023-03-06T15:42:47.382Z,3.46
2023-03-06T15:47:52.095Z,3.45
2023-03-06T15:52:54.174Z,3.47
2023-03-06T15:58:02.244Z,3.48
2023-03-06T16:03:05.040Z,3.48
2023-03-06T16:08:07.526Z,3.47
2023-03-06T16:13:22.401Z,3.44
2023-03-06T16:18:25.115Z,3.39
2023-03-06T16:23:27.078Z,3.30
2023-03-06T16:28:29.049Z,3.24
2023-03-06T16:33:30.993Z,3.17
2023-03-06T16:38:32.937Z,3.08
2023-03-06T16:43:35.563Z,3.00
2023-03-06T16:48:37.799Z,2.92
2023-03-06T16:53:39.930Z,2.84
2023-03-06T16:58:45.490Z,2.78
2023-03-06T17:03:47.972Z,2.74
2023-03-06T17:08:51.057Z,2.72
2023-03-06T17:13:54.835Z,2.73
2023-03-06T17:18:58.288Z,2.74
2023-03-06T17:24:02.502Z,2.77
2023-03-06T17:29:07.009Z,2.82
2023-03-06T17:34:09.446Z,2.88
2023-03-06T17:39:12.949Z,2.94
2023-03-06T17:44:16.973Z,2.97
2023-03-06T17:49:21.645Z,2.99
2023-03-06T17:54:30.075Z,3.00
2023-03-06T17:59:36.297Z,3.02
2023-03-06T18:04:38.597Z,3.05
2023-03-06T18:09:42.878Z,3.09
2023-03-06T18:14:45.579Z,3.11
2023-03-06T18:19:48.182Z,3.12
2023-03-06T18:24:51.081Z,3.12
2023-03-06T18:29:55.550Z,3.12
2023-03-06T18:34:58.309Z,3.11
2023-03-06T18:40:00.835Z,3.10
2023-03-06T18:45:03.367Z,3.10
2023-03-06T18:50:06.832Z,3.07
2023-03-06T18:55:10.364Z,3.05
2023-03-06T19:00:22.472Z,3.03
2023-03-06T19:05:24.563Z,3.00
2023-03-06T19:10:27.064Z,2.97
2023-03-06T19:15:30.265Z,2.95
2023-03-06T19:20:33.020Z,2.91
2023-03-06T19:25:35.821Z,2.83
2023-03-06T19:30:40.925Z,2.73
2023-03-06T19:35:43.430Z,2.60
2023-03-06T19:40:51.967Z,2.47
2023-03-06T19:45:55.218Z,2.36
2023-03-06T19:50:57.196Z,2.29
2023-03-06T19:56:21.530Z,2.22
2023-03-06T20:01:26.696Z,2.16
2023-03-06T20:06:33.760Z,2.11
2023-03-06T20:11:35.977Z,2.06
2023-03-06T20:16:39.549Z,2.03
2023-03-06T20:21:42.712Z,2.00
2023-03-06T20:26:46.824Z,1.95
2023-03-06T20:31:49.454Z,1.89
2023-03-06T20:36:51.510Z,1.83
2023-03-06T20:41:54.975Z,1.74
2023-03-06T20:46:57.088Z,1.66
2023-03-06T20:51:59.156Z,1.59
2023-03-06T20:57:01.405Z,1.52
2023-03-06T21:02:04.142Z,1.45
2023-03-06T21:07:07.085Z,1.36
2023-03-06T21:12:09.413Z,1.27
2023-03-06T21:17:13.843Z,1.19
2023-03-06T21:22:17.189Z,1.12
2023-03-06T21:27:19.559Z,1.04
2023-03-06T21:32:21.716Z,0.96
2023-03-06T21:37:23.739Z,0.89
2023-03-06T21:42:26.253Z,0.83
2023-03-06T21:47:28.545Z,0.78
2023-03-06T21:52:30.574Z,0.76
2023-03-06T21:57:32.798Z,0.74
2023-03-06T22:02:35.552Z,0.74
2023-03-06T22:07:38.269Z,0.75
2023-03-06T22:12:41.989Z,0.75
2023-03-06T22:17:48.723Z,0.77
2023-03-06T22:22:51.005Z,0.78
2023-03-06T22:27:53.130Z,0.80
2023-03-06T22:32:57.118Z,0.83
2023-03-06T22:37:59.668Z,0.88
2023-03-06T22:43:02.646Z,0.92
2023-03-06T22:48:11.171Z,0.95
2023-03-06T22:53:20.957Z,0.98
2023-03-06T22:58:23.270Z,1.02
2023-03-06T23:03:25.189Z,1.05
2023-03-06T23:08:27.200Z,1.09
2023-03-06T23:13:29.118Z,1.11
2023-03-06T23:18:52.461Z,1.13
2023-03-06T23:24:12.958Z,1.16
2023-03-06T23:29:16.358Z,1.20
2023-03-06T23:34:18.401Z,1.24
2023-03-06T23:39:21.374Z,1.27
2023-03-06T23:44:23.242Z,1.31
2023-03-06T23:49:25.192Z,1.34
2023-03-06T23:54:27.179Z,1.35
2023-03-06T23:59:29.493Z,1.35
